sensor_id;sensor_type;location;lat;lon;timestamp;temperature;humidity
65472;DHT22;52068;50.710;14.492;2024-02-28T00:01:37;27.33;33.97
65472;DHT22;52068;50.710;14.492;2024-02-28T00:04:03;27.98;32.75
65472;DHT22;52068;50.710;14.492;2024-02-28T00:06:28;28.49;31.95
65472;DHT22;52068;50.710;14.492;2024-02-28T00:08:54;28.75;31.44
65472;DHT22;52068;50.710;14.492;2024-02-28T00:11:20;28.87;31.29
65472;DHT22;52068;50.710;14.492;2024-02-28T00:13:45;28.79;31.35
65472;DHT22;52068;50.710;14.492;2024-02-28T00:16:11;28.59;31.70
65472;DHT22;52068;50.710;14.492;2024-02-28T00:18:37;28.32;32.15
65472;DHT22;52068;50.710;14.492;2024-02-28T00:21:02;27.90;32.63
65472;DHT22;52068;50.710;14.492;2024-02-28T00:23:29;27.46;33.50
65472;DHT22;52068;50.710;14.492;2024-02-28T00:25:54;27.09;34.06
65472;DHT22;52068;50.710;14.492;2024-02-28T00:28:19;26.75;34.59
65472;DHT22;52068;50.710;14.492;2024-02-28T00:30:45;26.47;35.06
65472;DHT22;52068;50.710;14.492;2024-02-28T00:33:10;26.16;35.54
65472;DHT22;52068;50.710;14.492;2024-02-28T00:35:36;25.89;35.98
65472;DHT22;52068;50.710;14.492;2024-02-28T00:38:01;25.67;36.25
65472;DHT22;52068;50.710;14.492;2024-02-28T00:40:27;25.45;36.74
65472;DHT22;52068;50.710;14.492;2024-02-28T00:42:53;25.28;37.00
65472;DHT22;52068;50.710;14.492;2024-02-28T00:45:19;25.34;37.15
65472;DHT22;52068;50.710;14.492;2024-02-28T00:47:44;25.65;36.57
65472;DHT22;52068;50.710;14.492;2024-02-28T00:50:09;26.12;35.87
65472;DHT22;52068;50.710;14.492;2024-02-28T00:52:36;26.76;34.88
65472;DHT22;52068;50.710;14.492;2024-02-28T00:55:02;27.46;33.77
65472;DHT22;52068;50.710;14.492;2024-02-28T00:57:28;28.07;32.73
65472;DHT22;52068;50.710;14.492;2024-02-28T00:59:53;28.48;32.01
65472;DHT22;52068;50.710;14.492;2024-02-28T01:02:20;28.69;31.73
65472;DHT22;52068;50.710;14.492;2024-02-28T01:04:45;28.72;31.63
65472;DHT22;52068;50.710;14.492;2024-02-28T01:07:11;28.63;31.80
65472;DHT22;52068;50.710;14.492;2024-02-28T01:09:36;28.41;32.09
65472;DHT22;52068;50.710;14.492;2024-02-28T01:12:02;28.14;32.52
65472;DHT22;52068;50.710;14.492;2024-02-28T01:14:27;27.81;33.04
65472;DHT22;52068;50.710;14.492;2024-02-28T01:16:52;27.40;33.78
65472;DHT22;52068;50.710;14.492;2024-02-28T01:19:18;27.00;34.45
65472;DHT22;52068;50.710;14.492;2024-02-28T01:21:43;26.65;34.88
65472;DHT22;52068;50.710;14.492;2024-02-28T01:24:09;26.41;35.49
65472;DHT22;52068;50.710;14.492;2024-02-28T01:26:34;26.08;35.87
65472;DHT22;52068;50.710;14.492;2024-02-28T01:28:59;25.82;36.30
65472;DHT22;52068;50.710;14.492;2024-02-28T01:31:25;25.61;36.83
65472;DHT22;52068;50.710;14.492;2024-02-28T01:33:50;25.36;37.18
65472;DHT22;52068;50.710;14.492;2024-02-28T01:36:16;25.28;37.45
65472;DHT22;52068;50.710;14.492;2024-02-28T01:38:41;25.42;37.27
65472;DHT22;52068;50.710;14.492;2024-02-28T01:41:06;25.90;36.57
65472;DHT22;52068;50.710;14.492;2024-02-28T01:43:32;26.54;35.51
65472;DHT22;52068;50.710;14.492;2024-02-28T01:46:03;27.32;34.22
65472;DHT22;52068;50.710;14.492;2024-02-28T01:48:31;28.00;33.15
65472;DHT22;52068;50.710;14.492;2024-02-28T01:50:56;28.60;32.14
65472;DHT22;52068;50.710;14.492;2024-02-28T01:53:22;29.08;31.39
65472;DHT22;52068;50.710;14.492;2024-02-28T01:55:48;29.38;30.90
65472;DHT22;52068;50.710;14.492;2024-02-28T01:58:13;29.45;30.79
65472;DHT22;52068;50.710;14.492;2024-02-28T02:00:39;29.47;30.88
65472;DHT22;52068;50.710;14.492;2024-02-28T02:03:04;29.28;31.05
65472;DHT22;52068;50.710;14.492;2024-02-28T02:05:30;29.07;31.41
65472;DHT22;52068;50.710;14.492;2024-02-28T02:07:57;28.72;31.81
65472;DHT22;52068;50.710;14.492;2024-02-28T02:10:24;28.36;32.35
65472;DHT22;52068;50.710;14.492;2024-02-28T02:12:49;28.00;32.96
65472;DHT22;52068;50.710;14.492;2024-02-28T02:15:14;27.67;33.41
65472;DHT22;52068;50.710;14.492;2024-02-28T02:17:40;27.27;33.98
65472;DHT22;52068;50.710;14.492;2024-02-28T02:20:06;26.89;34.77
65472;DHT22;52068;50.710;14.492;2024-02-28T02:22:38;26.45;35.36
65472;DHT22;52068;50.710;14.492;2024-02-28T02:25:06;26.14;35.85
65472;DHT22;52068;50.710;14.492;2024-02-28T02:27:32;25.89;36.44
65472;DHT22;52068;50.710;14.492;2024-02-28T02:29:58;25.75;36.64
65472;DHT22;52068;50.710;14.492;2024-02-28T02:32:23;25.80;36.69
65472;DHT22;52068;50.710;14.492;2024-02-28T02:34:49;26.20;36.13
65472;DHT22;52068;50.710;14.492;2024-02-28T02:37:14;26.72;35.29
65472;DHT22;52068;50.710;14.492;2024-02-28T02:39:39;27.29;34.29
65472;DHT22;52068;50.710;14.492;2024-02-28T02:42:05;27.84;33.35
65472;DHT22;52068;50.710;14.492;2024-02-28T02:44:30;28.31;32.58
65472;DHT22;52068;50.710;14.492;2024-02-28T02:46:56;28.57;32.02
65472;DHT22;52068;50.710;14.492;2024-02-28T02:49:21;28.67;31.90
65472;DHT22;52068;50.710;14.492;2024-02-28T02:51:46;28.59;32.05
65472;DHT22;52068;50.710;14.492;2024-02-28T02:54:12;28.44;32.25
65472;DHT22;52068;50.710;14.492;2024-02-28T02:56:41;28.16;32.70
65472;DHT22;52068;50.710;14.492;2024-02-28T02:59:06;27.84;33.26
65472;DHT22;52068;50.710;14.492;2024-02-28T03:01:31;27.46;33.79
65472;DHT22;52068;50.710;14.492;2024-02-28T03:03:57;27.10;34.47
65472;DHT22;52068;50.710;14.492;2024-02-28T03:06:22;26.76;34.93
65472;DHT22;52068;50.710;14.492;2024-02-28T03:08:49;26.48;35.45
65472;DHT22;52068;50.710;14.492;2024-02-28T03:11:14;26.20;35.95
65472;DHT22;52068;50.710;14.492;2024-02-28T03:13:40;25.94;36.38
65472;DHT22;52068;50.710;14.492;2024-02-28T03:16:06;25.69;36.73
65472;DHT22;52068;50.710;14.492;2024-02-28T03:18:31;25.47;37.16
65472;DHT22;52068;50.710;14.492;2024-02-28T03:20:57;25.38;37.24
65472;DHT22;52068;50.710;14.492;2024-02-28T03:23:22;25.52;37.32
65472;DHT22;52068;50.710;14.492;2024-02-28T03:25:48;25.82;36.92
65472;DHT22;52068;50.710;14.492;2024-02-28T03:28:13;26.38;35.91
65472;DHT22;52068;50.710;14.492;2024-02-28T03:30:39;27.00;34.87
65472;DHT22;52068;50.710;14.492;2024-02-28T03:33:04;27.66;33.83
65472;DHT22;52068;50.710;14.492;2024-02-28T03:35:29;28.09;32.99
65472;DHT22;52068;50.710;14.492;2024-02-28T03:37:55;28.48;32.35
65472;DHT22;52068;50.710;14.492;2024-02-28T03:40:20;28.62;32.01
65472;DHT22;52068;50.710;14.492;2024-02-28T03:42:45;28.66;31.93
65472;DHT22;52068;50.710;14.492;2024-02-28T03:45:11;28.53;32.10
65472;DHT22;52068;50.710;14.492;2024-02-28T03:47:36;28.26;32.54
65472;DHT22;52068;50.710;14.492;2024-02-28T03:50:02;27.98;32.81
65472;DHT22;52068;50.710;14.492;2024-02-28T03:52:29;27.61;33.45
65472;DHT22;52068;50.710;14.492;2024-02-28T03:54:55;27.27;34.12
65472;DHT22;52068;50.710;14.492;2024-02-28T03:57:20;26.94;34.65
65472;DHT22;52068;50.710;14.492;2024-02-28T03:59:46;26.59;35.13
65472;DHT22;52068;50.710;14.492;2024-02-28T04:02:11;26.33;35.61
65472;DHT22;52068;50.710;14.492;2024-02-28T04:04:36;26.06;35.96
65472;DHT22;52068;50.710;14.492;2024-02-28T04:07:02;25.83;36.43
65472;DHT22;52068;50.710;14.492;2024-02-28T04:09:27;25.61;36.84
65472;DHT22;52068;50.710;14.492;2024-02-28T04:11:52;25.36;37.25
65472;DHT22;52068;50.710;14.492;2024-02-28T04:14:18;25.35;37.33
65472;DHT22;52068;50.710;14.492;2024-02-28T04:16:44;25.50;37.30
65472;DHT22;52068;50.710;14.492;2024-02-28T04:19:12;26.04;36.55
65472;DHT22;52068;50.710;14.492;2024-02-28T04:21:37;26.68;35.51
65472;DHT22;52068;50.710;14.492;2024-02-28T04:24:04;27.39;34.31
65472;DHT22;52068;50.710;14.492;2024-02-28T04:26:29;27.98;33.00
65472;DHT22;52068;50.710;14.492;2024-02-28T04:28:55;28.55;32.25
65472;DHT22;52068;50.710;14.492;2024-02-28T04:31:21;28.89;31.66
65472;DHT22;52068;50.710;14.492;2024-02-28T04:33:46;28.97;31.50
65472;DHT22;52068;50.710;14.492;2024-02-28T04:36:12;28.92;31.50
65472;DHT22;52068;50.710;14.492;2024-02-28T04:38:37;28.73;31.76
65472;DHT22;52068;50.710;14.492;2024-02-28T04:41:03;28.46;32.13
65472;DHT22;52068;50.710;14.492;2024-02-28T04:43:28;28.11;32.59
65472;DHT22;52068;50.710;14.492;2024-02-28T04:45:53;27.74;33.14
65472;DHT22;52068;50.710;14.492;2024-02-28T04:48:19;27.35;33.83
65472;DHT22;52068;50.710;14.492;2024-02-28T04:50:44;26.98;34.41
65472;DHT22;52068;50.710;14.492;2024-02-28T04:53:09;26.61;34.96
65472;DHT22;52068;50.710;14.492;2024-02-28T04:55:35;26.31;35.62
65472;DHT22;52068;50.710;14.492;2024-02-28T04:58:00;26.01;36.05
65472;DHT22;52068;50.710;14.492;2024-02-28T05:00:26;25.77;36.33
65472;DHT22;52068;50.710;14.492;2024-02-28T05:02:51;25.56;36.81
65472;DHT22;52068;50.710;14.492;2024-02-28T05:05:16;25.38;37.19
65472;DHT22;52068;50.710;14.492;2024-02-28T05:07:42;25.35;37.24
65472;DHT22;52068;50.710;14.492;2024-02-28T05:10:07;25.59;36.83
65472;DHT22;52068;50.710;14.492;2024-02-28T05:12:33;26.01;36.17
65472;DHT22;52068;50.710;14.492;2024-02-28T05:14:58;26.54;35.42
65472;DHT22;52068;50.710;14.492;2024-02-28T05:17:24;27.12;34.48
65472;DHT22;52068;50.710;14.492;2024-02-28T05:19:49;27.71;33.49
65472;DHT22;52068;50.710;14.492;2024-02-28T05:22:14;28.05;32.89
65472;DHT22;52068;50.710;14.492;2024-02-28T05:24:40;28.29;32.51
65472;DHT22;52068;50.710;14.492;2024-02-28T05:27:09;28.32;32.42
65472;DHT22;52068;50.710;14.492;2024-02-28T05:29:34;28.21;32.63
65472;DHT22;52068;50.710;14.492;2024-02-28T05:31:59;28.02;32.77
65472;DHT22;52068;50.710;14.492;2024-02-28T05:34:25;27.67;33.55
65472;DHT22;52068;50.710;14.492;2024-02-28T05:36:50;27.27;34.18
65472;DHT22;52068;50.710;14.492;2024-02-28T05:39:15;26.94;34.57
65472;DHT22;52068;50.710;14.492;2024-02-28T05:41:41;26.67;35.05
65472;DHT22;52068;50.710;14.492;2024-02-28T05:44:06;26.38;35.50
65472;DHT22;52068;50.710;14.492;2024-02-28T05:46:31;26.12;36.00
65472;DHT22;52068;50.710;14.492;2024-02-28T05:48:57;25.86;36.34
65472;DHT22;52068;50.710;14.492;2024-02-28T05:51:22;25.61;36.72
65472;DHT22;52068;50.710;14.492;2024-02-28T05:53:48;25.38;37.15
65472;DHT22;52068;50.710;14.492;2024-02-28T05:56:13;25.22;37.49
65472;DHT22;52068;50.710;14.492;2024-02-28T05:58:43;25.35;37.47
65472;DHT22;52068;50.710;14.492;2024-02-28T06:01:12;25.79;36.60
65472;DHT22;52068;50.710;14.492;2024-02-28T06:03:38;26.41;35.82
65472;DHT22;52068;50.710;14.492;2024-02-28T06:06:05;27.27;34.53
65472;DHT22;52068;50.710;14.492;2024-02-28T06:08:34;28.12;32.90
65472;DHT22;52068;50.710;14.492;2024-02-28T06:11:01;28.83;31.64
65472;DHT22;52068;50.710;14.492;2024-02-28T06:13:27;29.41;30.78
65472;DHT22;52068;50.710;14.492;2024-02-28T06:15:54;29.72;30.21
65472;DHT22;52068;50.710;14.492;2024-02-28T06:18:19;29.84;30.00
65472;DHT22;52068;50.710;14.492;2024-02-28T06:20:44;29.81;30.04
65472;DHT22;52068;50.710;14.492;2024-02-28T06:23:10;29.66;30.17
65472;DHT22;52068;50.710;14.492;2024-02-28T06:25:35;29.43;30.47
65472;DHT22;52068;50.710;14.492;2024-02-28T06:28:01;29.17;30.84
65472;DHT22;52068;50.710;14.492;2024-02-28T06:30:32;28.86;31.32
65472;DHT22;52068;50.710;14.492;2024-02-28T06:33:00;28.51;31.78
65472;DHT22;52068;50.710;14.492;2024-02-28T06:35:26;28.12;32.33
65472;DHT22;52068;50.710;14.492;2024-02-28T06:37:51;27.71;32.99
65472;DHT22;52068;50.710;14.492;2024-02-28T06:40:17;27.33;33.66
65472;DHT22;52068;50.710;14.492;2024-02-28T06:42:42;26.95;34.28
65472;DHT22;52068;50.710;14.492;2024-02-28T06:45:08;26.58;34.80
65472;DHT22;52068;50.710;14.492;2024-02-28T06:47:34;26.34;35.26
65472;DHT22;52068;50.710;14.492;2024-02-28T06:49:59;26.33;35.44
65472;DHT22;52068;50.710;14.492;2024-02-28T06:52:25;26.58;35.01
65472;DHT22;52068;50.710;14.492;2024-02-28T06:54:50;27.09;34.20
65472;DHT22;52068;50.710;14.492;2024-02-28T06:57:17;27.71;33.12
65472;DHT22;52068;50.710;14.492;2024-02-28T06:59:42;28.41;32.03
65472;DHT22;52068;50.710;14.492;2024-02-28T07:02:07;29.02;31.01
65472;DHT22;52068;50.710;14.492;2024-02-28T07:04:33;29.55;30.18
65472;DHT22;52068;50.710;14.492;2024-02-28T07:06:58;29.95;29.59
65472;DHT22;52068;50.710;14.492;2024-02-28T07:09:23;30.22;29.20
65472;DHT22;52068;50.710;14.492;2024-02-28T07:11:51;30.30;29.04
65472;DHT22;52068;50.710;14.492;2024-02-28T07:14:16;30.27;29.01
65472;DHT22;52068;50.710;14.492;2024-02-28T07:16:41;30.13;29.18
65472;DHT22;52068;50.710;14.492;2024-02-28T07:19:07;29.90;29.42
65472;DHT22;52068;50.710;14.492;2024-02-28T07:21:32;29.61;29.80
65472;DHT22;52068;50.710;14.492;2024-02-28T07:23:58;29.35;30.15
65472;DHT22;52068;50.710;14.492;2024-02-28T07:26:23;29.00;30.69
65472;DHT22;52068;50.710;14.492;2024-02-28T07:28:49;28.60;31.24
65472;DHT22;52068;50.710;14.492;2024-02-28T07:31:23;28.18;31.86
65472;DHT22;52068;50.710;14.492;2024-02-28T07:33:49;27.73;32.66
65472;DHT22;52068;50.710;14.492;2024-02-28T07:36:14;27.33;33.33
65472;DHT22;52068;50.710;14.492;2024-02-28T07:38:41;27.00;33.91
65472;DHT22;52068;50.710;14.492;2024-02-28T07:41:07;26.75;34.24
65472;DHT22;52068;50.710;14.492;2024-02-28T07:43:32;26.54;34.67
65472;DHT22;52068;50.710;14.492;2024-02-28T07:46:11;26.64;34.57
65472;DHT22;52068;50.710;14.492;2024-02-28T07:48:37;26.94;34.19
65472;DHT22;52068;50.710;14.492;2024-02-28T07:51:06;27.22;33.76
65472;DHT22;52068;50.710;14.492;2024-02-28T07:53:32;27.58;33.05
65472;DHT22;52068;50.710;14.492;2024-02-28T07:55:57;27.94;32.48
65472;DHT22;52068;50.710;14.492;2024-02-28T07:58:22;28.21;31.96
65472;DHT22;52068;50.710;14.492;2024-02-28T08:00:48;28.44;31.69
65472;DHT22;52068;50.710;14.492;2024-02-28T08:03:13;28.56;31.48
65472;DHT22;52068;50.710;14.492;2024-02-28T08:05:39;28.59;31.45
65472;DHT22;52068;50.710;14.492;2024-02-28T08:08:07;28.57;31.43
65472;DHT22;52068;50.710;14.492;2024-02-28T08:10:33;28.52;31.50
65472;DHT22;52068;50.710;14.492;2024-02-28T08:13:00;28.32;31.72
65472;DHT22;52068;50.710;14.492;2024-02-28T08:15:26;28.12;31.99
65472;DHT22;52068;50.710;14.492;2024-02-28T08:17:51;27.81;32.53
65472;DHT22;52068;50.710;14.492;2024-02-28T08:20:16;27.51;32.92
65472;DHT22;52068;50.710;14.492;2024-02-28T08:22:42;27.22;33.43
65472;DHT22;52068;50.710;14.492;2024-02-28T08:25:07;26.84;34.07
65472;DHT22;52068;50.710;14.492;2024-02-28T08:27:36;26.51;34.63
65472;DHT22;52068;50.710;14.492;2024-02-28T08:30:03;26.27;34.86
65472;DHT22;52068;50.710;14.492;2024-02-28T08:32:28;26.01;35.33
65472;DHT22;52068;50.710;14.492;2024-02-28T08:34:53;25.80;35.78
65472;DHT22;52068;50.710;14.492;2024-02-28T08:37:20;25.63;36.06
65472;DHT22;52068;50.710;14.492;2024-02-28T08:39:45;25.56;36.23
65472;DHT22;52068;50.710;14.492;2024-02-28T08:42:10;25.69;36.11
65472;DHT22;52068;50.710;14.492;2024-02-28T08:44:37;25.90;35.70
65472;DHT22;52068;50.710;14.492;2024-02-28T08:47:02;26.21;35.20
65472;DHT22;52068;50.710;14.492;2024-02-28T08:49:28;26.71;34.45
65472;DHT22;52068;50.710;14.492;2024-02-28T08:51:53;27.13;33.85
65472;DHT22;52068;50.710;14.492;2024-02-28T08:54:18;27.58;32.96
65472;DHT22;52068;50.710;14.492;2024-02-28T08:56:44;28.00;32.34
65472;DHT22;52068;50.710;14.492;2024-02-28T08:59:09;28.25;31.85
65472;DHT22;52068;50.710;14.492;2024-02-28T09:01:35;28.45;31.49
65472;DHT22;52068;50.710;14.492;2024-02-28T09:04:02;28.55;31.25
65472;DHT22;52068;50.710;14.492;2024-02-28T09:06:27;28.46;31.38
65472;DHT22;52068;50.710;14.492;2024-02-28T09:08:52;28.35;31.53
65472;DHT22;52068;50.710;14.492;2024-02-28T09:11:18;28.19;31.72
65472;DHT22;52068;50.710;14.492;2024-02-28T09:13:43;27.94;32.04
65472;DHT22;52068;50.710;14.492;2024-02-28T09:16:08;27.58;32.59
65472;DHT22;52068;50.710;14.492;2024-02-28T09:18:35;27.27;33.08
65472;DHT22;52068;50.710;14.492;2024-02-28T09:21:00;27.06;33.12
65472;DHT22;52068;50.710;14.492;2024-02-28T09:23:25;26.81;33.56
65472;DHT22;52068;50.710;14.492;2024-02-28T09:25:51;26.47;34.35
65472;DHT22;52068;50.710;14.492;2024-02-28T09:28:16;26.14;34.76
65472;DHT22;52068;50.710;14.492;2024-02-28T09:30:42;25.94;34.80
65472;DHT22;52068;50.710;14.492;2024-02-28T09:33:08;25.73;35.26
65472;DHT22;52068;50.710;14.492;2024-02-28T09:35:34;25.62;35.56
65472;DHT22;52068;50.710;14.492;2024-02-28T09:38:00;25.53;35.71
65472;DHT22;52068;50.710;14.492;2024-02-28T09:40:25;25.63;35.57
65472;DHT22;52068;50.710;14.492;2024-02-28T09:42:52;25.79;35.38
65472;DHT22;52068;50.710;14.492;2024-02-28T09:45:20;26.00;35.22
65472;DHT22;52068;50.710;14.492;2024-02-28T09:47:46;26.24;34.84
65472;DHT22;52068;50.710;14.492;2024-02-28T09:50:12;26.43;34.58
65472;DHT22;52068;50.710;14.492;2024-02-28T09:52:38;26.71;33.97
65472;DHT22;52068;50.710;14.492;2024-02-28T09:55:04;26.95;33.73
65472;DHT22;52068;50.710;14.492;2024-02-28T09:57:31;27.05;33.55
65472;DHT22;52068;50.710;14.492;2024-02-28T09:59:58;27.15;33.26
65472;DHT22;52068;50.710;14.492;2024-02-28T10:02:25;27.10;33.35
65472;DHT22;52068;50.710;14.492;2024-02-28T10:04:52;26.98;33.49
65472;DHT22;52068;50.710;14.492;2024-02-28T10:07:17;26.86;33.54
65472;DHT22;52068;50.710;14.492;2024-02-28T10:09:43;26.62;33.98
65472;DHT22;52068;50.710;14.492;2024-02-28T10:12:09;26.45;34.32
65472;DHT22;52068;50.710;14.492;2024-02-28T10:14:34;26.21;34.60
65472;DHT22;52068;50.710;14.492;2024-02-28T10:17:00;26.04;34.84
65472;DHT22;52068;50.710;14.492;2024-02-28T10:19:25;25.86;35.09
65472;DHT22;52068;50.710;14.492;2024-02-28T10:21:51;25.70;35.30
65472;DHT22;52068;50.710;14.492;2024-02-28T10:24:16;25.53;35.61
65472;DHT22;52068;50.710;14.492;2024-02-28T10:26:46;25.35;35.66
65472;DHT22;52068;50.710;14.492;2024-02-28T10:29:21;25.19;35.87
65472;DHT22;52068;50.710;14.492;2024-02-28T10:31:46;25.10;36.06
65472;DHT22;52068;50.710;14.492;2024-02-28T10:34:13;25.01;36.17
65472;DHT22;52068;50.710;14.492;2024-02-28T10:36:41;25.01;36.26
65472;DHT22;52068;50.710;14.492;2024-02-28T10:39:09;25.08;36.44
65472;DHT22;52068;50.710;14.492;2024-02-28T10:41:37;25.16;36.26
65472;DHT22;52068;50.710;14.492;2024-02-28T10:44:03;25.16;36.19
65472;DHT22;52068;50.710;14.492;2024-02-28T10:46:29;25.34;35.84
65472;DHT22;52068;50.710;14.492;2024-02-28T10:48:54;25.49;35.66
65472;DHT22;52068;50.710;14.492;2024-02-28T10:51:23;25.66;35.46
65472;DHT22;52068;50.710;14.492;2024-02-28T10:53:50;25.76;35.33
65472;DHT22;52068;50.710;14.492;2024-02-28T10:56:20;25.92;34.81
65472;DHT22;52068;50.710;14.492;2024-02-28T10:58:52;25.98;34.89
65472;DHT22;52068;50.710;14.492;2024-02-28T11:01:18;26.07;34.80
65472;DHT22;52068;50.710;14.492;2024-02-28T11:03:44;26.13;34.61
65472;DHT22;52068;50.710;14.492;2024-02-28T11:06:19;26.13;34.58
65472;DHT22;52068;50.710;14.492;2024-02-28T11:08:47;26.13;34.62
65472;DHT22;52068;50.710;14.492;2024-02-28T11:11:19;26.12;34.35
65472;DHT22;52068;50.710;14.492;2024-02-28T11:16:29;25.90;34.99
65472;DHT22;52068;50.710;14.492;2024-02-28T11:18:55;25.77;35.11
65472;DHT22;52068;50.710;14.492;2024-02-28T11:21:25;25.65;35.35
65472;DHT22;52068;50.710;14.492;2024-02-28T11:23:51;25.55;35.30
65472;DHT22;52068;50.710;14.492;2024-02-28T11:26:16;25.52;35.42
65472;DHT22;52068;50.710;14.492;2024-02-28T11:28:43;25.41;35.58
65472;DHT22;52068;50.710;14.492;2024-02-28T11:31:08;25.34;35.76
65472;DHT22;52068;50.710;14.492;2024-02-28T11:33:35;25.31;35.72
65472;DHT22;52068;50.710;14.492;2024-02-28T11:36:01;25.22;35.89
65472;DHT22;52068;50.710;14.492;2024-02-28T11:38:28;25.15;36.10
65472;DHT22;52068;50.710;14.492;2024-02-28T11:40:54;25.10;36.11
65472;DHT22;52068;50.710;14.492;2024-02-28T11:43:22;25.04;36.25
65472;DHT22;52068;50.710;14.492;2024-02-28T11:45:48;25.05;36.05
65472;DHT22;52068;50.710;14.492;2024-02-28T11:48:14;25.08;36.25
65472;DHT22;52068;50.710;14.492;2024-02-28T11:50:39;25.15;35.97
65472;DHT22;52068;50.710;14.492;2024-02-28T11:53:08;25.24;35.89
65472;DHT22;52068;50.710;14.492;2024-02-28T11:55:34;25.28;35.99
65472;DHT22;52068;50.710;14.492;2024-02-28T11:58:00;25.34;35.66
65472;DHT22;52068;50.710;14.492;2024-02-28T12:00:26;25.39;35.73
65472;DHT22;52068;50.710;14.492;2024-02-28T12:02:51;25.46;35.63
65472;DHT22;52068;50.710;14.492;2024-02-28T12:05:19;25.58;35.60
65472;DHT22;52068;50.710;14.492;2024-02-28T12:07:45;25.62;35.51
65472;DHT22;52068;50.710;14.492;2024-02-28T12:10:10;25.70;35.40
65472;DHT22;52068;50.710;14.492;2024-02-28T12:12:36;25.73;35.20
65472;DHT22;52068;50.710;14.492;2024-02-28T12:15:05;25.84;35.09
65472;DHT22;52068;50.710;14.492;2024-02-28T12:17:30;25.90;35.03
65472;DHT22;52068;50.710;14.492;2024-02-28T12:19:56;26.01;34.81
65472;DHT22;52068;50.710;14.492;2024-02-28T12:22:23;26.14;34.51
65472;DHT22;52068;50.710;14.492;2024-02-28T12:24:49;26.18;34.48
65472;DHT22;52068;50.710;14.492;2024-02-28T12:27:14;26.38;34.01
65472;DHT22;52068;50.710;14.492;2024-02-28T12:29:40;26.54;33.94
65472;DHT22;52068;50.710;14.492;2024-02-28T12:32:05;26.69;33.57
65472;DHT22;52068;50.710;14.492;2024-02-28T12:34:30;26.84;33.46
65472;DHT22;52068;50.710;14.492;2024-02-28T12:36:56;27.05;33.07
65472;DHT22;52068;50.710;14.492;2024-02-28T12:39:21;27.25;32.78
65472;DHT22;52068;50.710;14.492;2024-02-28T12:41:47;27.42;32.56
65472;DHT22;52068;50.710;14.492;2024-02-28T12:44:13;27.61;32.13
65472;DHT22;52068;50.710;14.492;2024-02-28T12:46:39;27.80;31.79
65472;DHT22;52068;50.710;14.492;2024-02-28T12:49:04;27.88;31.59
65472;DHT22;52068;50.710;14.492;2024-02-28T12:54:02;27.78;31.83
65472;DHT22;52068;50.710;14.492;2024-02-28T12:56:27;27.63;31.97
65472;DHT22;52068;50.710;14.492;2024-02-28T12:58:53;27.50;32.19
65472;DHT22;52068;50.710;14.492;2024-02-28T13:01:18;27.32;32.55
65472;DHT22;52068;50.710;14.492;2024-02-28T13:03:44;27.09;32.79
65472;DHT22;52068;50.710;14.492;2024-02-28T13:06:09;26.82;33.29
65472;DHT22;52068;50.710;14.492;2024-02-28T13:08:34;26.67;33.46
65472;DHT22;52068;50.710;14.492;2024-02-28T13:11:00;26.47;33.78
65472;DHT22;52068;50.710;14.492;2024-02-28T13:13:26;26.23;34.10
65472;DHT22;52068;50.710;14.492;2024-02-28T13:15:51;25.98;34.55
65472;DHT22;52068;50.710;14.492;2024-02-28T13:18:16;25.84;34.73
65472;DHT22;52068;50.710;14.492;2024-02-28T13:20:42;25.65;35.11
65472;DHT22;52068;50.710;14.492;2024-02-28T13:23:07;25.47;35.26
65472;DHT22;52068;50.710;14.492;2024-02-28T13:25:33;25.28;35.72
65472;DHT22;52068;50.710;14.492;2024-02-28T13:27:58;25.16;35.84
65472;DHT22;52068;50.710;14.492;2024-02-28T13:30:23;25.15;35.96
65472;DHT22;52068;50.710;14.492;2024-02-28T13:32:49;25.15;35.98
65472;DHT22;52068;50.710;14.492;2024-02-28T13:35:14;25.21;36.01
65472;DHT22;52068;50.710;14.492;2024-02-28T13:37:40;25.31;35.78
65472;DHT22;52068;50.710;14.492;2024-02-28T13:40:07;25.52;35.37
65472;DHT22;52068;50.710;14.492;2024-02-28T13:42:32;25.77;35.09
65472;DHT22;52068;50.710;14.492;2024-02-28T13:44:58;26.03;34.52
65472;DHT22;52068;50.710;14.492;2024-02-28T13:47:23;26.21;34.39
65472;DHT22;52068;50.710;14.492;2024-02-28T13:49:49;26.47;34.03
65472;DHT22;52068;50.710;14.492;2024-02-28T13:52:15;26.75;33.47
65472;DHT22;52068;50.710;14.492;2024-02-28T13:54:40;26.95;33.11
65472;DHT22;52068;50.710;14.492;2024-02-28T13:57:06;27.12;32.80
65472;DHT22;52068;50.710;14.492;2024-02-28T13:59:31;27.23;32.64
65472;DHT22;52068;50.710;14.492;2024-02-28T14:01:57;27.33;32.39
65472;DHT22;52068;50.710;14.492;2024-02-28T14:04:25;27.26;32.58
65472;DHT22;52068;50.710;14.492;2024-02-28T14:06:50;27.20;32.39
65472;DHT22;52068;50.710;14.492;2024-02-28T14:09:15;27.05;32.70
65472;DHT22;52068;50.710;14.492;2024-02-28T14:11:41;26.74;33.38
65472;DHT22;52068;50.710;14.492;2024-02-28T14:14:07;26.48;33.82
65472;DHT22;52068;50.710;14.492;2024-02-28T14:16:32;26.34;33.96
65472;DHT22;52068;50.710;14.492;2024-02-28T14:18:58;26.16;34.20
65472;DHT22;52068;50.710;14.492;2024-02-28T14:21:24;25.97;34.42
65472;DHT22;52068;50.710;14.492;2024-02-28T14:23:50;25.80;34.95
65472;DHT22;52068;50.710;14.492;2024-02-28T14:26:16;25.77;35.04
65472;DHT22;52068;50.710;14.492;2024-02-28T14:28:42;25.76;35.11
65472;DHT22;52068;50.710;14.492;2024-02-28T14:31:07;25.69;35.21
65472;DHT22;52068;50.710;14.492;2024-02-28T14:33:33;25.69;35.34
65472;DHT22;52068;50.710;14.492;2024-02-28T14:35:58;25.69;35.28
65472;DHT22;52068;50.710;14.492;2024-02-28T14:38:25;25.82;35.11
65472;DHT22;52068;50.710;14.492;2024-02-28T14:40:50;26.03;34.82
65472;DHT22;52068;50.710;14.492;2024-02-28T14:43:16;26.37;34.25
65472;DHT22;52068;50.710;14.492;2024-02-28T14:45:41;26.74;33.74
65472;DHT22;52068;50.710;14.492;2024-02-28T14:48:07;27.05;33.12
65472;DHT22;52068;50.710;14.492;2024-02-28T14:50:32;27.37;32.53
65472;DHT22;52068;50.710;14.492;2024-02-28T14:52:58;27.67;31.99
65472;DHT22;52068;50.710;14.492;2024-02-28T14:55:23;27.93;31.60
65472;DHT22;52068;50.710;14.492;2024-02-28T14:57:49;28.16;31.17
65472;DHT22;52068;50.710;14.492;2024-02-28T15:00:16;28.38;30.90
65472;DHT22;52068;50.710;14.492;2024-02-28T15:02:42;28.51;30.57
65472;DHT22;52068;50.710;14.492;2024-02-28T15:05:08;28.57;30.42
65472;DHT22;52068;50.710;14.492;2024-02-28T15:07:33;28.57;30.42
65472;DHT22;52068;50.710;14.492;2024-02-28T15:10:00;28.55;30.42
65472;DHT22;52068;50.710;14.492;2024-02-28T15:12:27;28.48;30.45